Time,TemperatureF,DewpointF,PressureIn,WindDirection,WindDirectionDegrees,WindSpeedMPH,WindSpeedGustMPH,Humidity,HourlyPrecipIn,Conditions,Clouds,dailyrainin,SoftwareType,DateUTC
2013-09-18 00:00:00,76.1,70.2,29.95,East,97,2.0,5.0,82,0.00,,,0.00,Wunderground v.1.15,2013-09-18 10:00:00,
2013-09-18 00:05:00,76.0,69.7,29.95,ESE,106,2.0,5.0,81,0.00,,,0.00,Wunderground v.1.15,2013-09-18 10:05:00,
2013-09-18 00:15:00,76.1,69.5,29.95,ESE,122,3.0,7.0,80,0.00,,,0.00,Wunderground v.1.15,2013-09-18 10:15:00,
2013-09-18 00:20:00,76.2,69.9,29.95,ESE,105,3.0,3.0,81,0.00,,,0.00,Wunderground v.1.15,2013-09-18 10:20:00,
2013-09-18 00:30:00,76.2,70.3,29.94,ENE,64,3.0,6.0,82,0.00,,,0.00,Wunderground v.1.15,2013-09-18 10:30:00,
2013-09-18 00:40:00,76.4,70.5,29.94,East,98,4.0,4.0,82,0.00,,,0.00,Wunderground v.1.15,2013-09-18 10:40:00,
2013-09-18 00:50:00,76.2,70.3,29.94,ENE,73,4.0,4.0,82,0.00,,,0.00,Wunderground v.1.15,2013-09-18 10:50:00,
2013-09-18 01:00:00,76.2,70.7,29.94,ENE,69,2.0,3.0,83,0.00,,,0.00,Wunderground v.1.15,2013-09-18 11:00:00,
2013-09-18 01:05:00,76.1,70.2,29.94,East,80,2.0,3.0,82,0.00,,,0.00,Wunderground v.1.15,2013-09-18 11:05:00,
2013-09-18 01:15:00,76.0,70.5,29.93,East,91,3.0,4.0,83,0.00,,,0.00,Wunderground v.1.15,2013-09-18 11:15:00,
2013-09-18 01:25:00,76.0,70.5,29.93,ESE,109,3.0,6.0,83,0.00,,,0.00,Wunderground v.1.15,2013-09-18 11:25:00,
2013-09-18 01:35:00,76.1,70.6,29.93,ENE,71,3.0,6.0,83,0.00,,,0.00,Wunderground v.1.15,2013-09-18 11:35:00,
2013-09-18 01:45:00,76.3,70.8,29.93,East,92,4.0,7.0,83,0.00,,,0.00,Wunderground v.1.15,2013-09-18 11:45:00,
2013-09-18 01:55:00,75.2,70.7,29.93,East,94,4.0,4.0,86,0.07,,,0.02,Wunderground v.1.15,2013-09-18 11:55:00,
2013-09-18 02:05:00,74.4,70.3,29.92,ESE,121,2.0,5.0,87,0.00,,,0.02,Wunderground v.1.15,2013-09-18 12:05:00,
2013-09-18 02:15:00,74.2,70.1,29.92,ENE,72,4.0,4.0,87,0.00,,,0.02,Wunderground v.1.15,2013-09-18 12:15:00,
2013-09-18 02:25:00,74.2,70.4,29.92,ENE,68,3.0,3.0,88,0.00,,,0.02,Wunderground v.1.15,2013-09-18 12:25:00,
2013-09-18 02:35:00,74.9,70.4,29.92,East,90,4.0,4.0,86,0.00,,,0.02,Wunderground v.1.15,2013-09-18 12:35:00,
2013-09-18 02:45:00,75.2,70.4,29.92,ENE,72,4.0,5.0,85,0.00,,,0.02,Wunderground v.1.15,2013-09-18 12:45:00,
2013-09-18 02:55:00,75.4,70.2,29.92,East,95,4.0,4.0,84,0.00,,,0.02,Wunderground v.1.15,2013-09-18 12:55:00,
2013-09-18 03:05:00,75.5,70.3,29.91,East,95,3.0,6.0,84,0.00,,,0.02,Wunderground v.1.15,2013-09-18 13:05:00,
2013-09-18 03:15:00,75.5,70.3,29.91,East,88,3.0,3.0,84,0.00,,,0.02,Wunderground v.1.15,2013-09-18 13:15:00,
2013-09-18 03:20:00,75.5,70.3,29.91,East,90,3.0,3.0,84,0.00,,,0.02,Wunderground v.1.15,2013-09-18 13:20:00,
2013-09-18 03:30:00,75.1,70.3,29.91,ENE,71,4.0,6.0,85,0.00,,,0.03,Wunderground v.1.15,2013-09-18 13:30:00,
2013-09-18 03:35:00,74.7,69.9,29.91,East,98,5.0,6.0,85,0.00,,,0.03,Wunderground v.1.15,2013-09-18 13:35:00,
2013-09-18 03:45:00,74.3,69.8,29.91,East,97,4.0,5.0,86,0.00,,,0.03,Wunderground v.1.15,2013-09-18 13:45:00,
2013-09-18 03:50:00,74.3,69.5,29.91,ENE,67,4.0,4.0,85,0.00,,,0.03,Wunderground v.1.15,2013-09-18 13:50:00,
2013-09-18 04:00:00,74.4,69.6,29.91,East,88,4.0,6.0,85,0.00,,,0.03,Wunderground v.1.15,2013-09-18 14:00:00,
2013-09-18 04:05:00,74.4,69.6,29.91,East,90,4.0,6.0,85,0.00,,,0.03,Wunderground v.1.15,2013-09-18 14:05:00,
2013-09-18 04:15:00,74.5,69.3,29.91,East,94,3.0,4.0,84,0.00,,,0.03,Wunderground v.1.15,2013-09-18 14:15:00,
2013-09-18 04:25:00,74.7,69.2,29.91,East,95,4.0,4.0,83,0.00,,,0.03,Wunderground v.1.15,2013-09-18 14:25:00,
2013-09-18 04:35:00,75.0,69.5,29.91,East,90,4.0,5.0,83,0.00,,,0.03,Wunderground v.1.15,2013-09-18 14:35:00,
2013-09-18 04:45:00,75.1,69.6,29.91,ENE,75,4.0,4.0,83,0.00,,,0.03,Wunderground v.1.15,2013-09-18 14:45:00,
2013-09-18 04:50:00,75.0,69.1,29.91,ESE,107,3.0,3.0,82,0.00,,,0.03,Wunderground v.1.15,2013-09-18 14:50:00,
2013-09-18 05:00:00,74.9,69.4,29.91,ESE,110,2.0,3.0,83,0.00,,,0.03,Wunderground v.1.15,2013-09-18 15:00:00,
2013-09-18 05:05:00,75.1,69.2,29.91,NE,50,3.0,3.0,82,0.00,,,0.03,Wunderground v.1.15,2013-09-18 15:05:00,
2013-09-18 05:15:00,74.9,69.4,29.91,East,93,3.0,3.0,83,0.00,,,0.03,Wunderground v.1.15,2013-09-18 15:15:00,
2013-09-18 05:25:00,75.3,69.1,29.92,East,101,4.0,4.0,81,0.00,,,0.03,Wunderground v.1.15,2013-09-18 15:25:00,
2013-09-18 05:35:00,75.5,69.3,29.92,ESE,107,4.0,4.0,81,0.00,,,0.03,Wunderground v.1.15,2013-09-18 15:35:00,
2013-09-18 05:40:00,75.4,69.2,29.92,ESE,111,3.0,3.0,81,0.00,,,0.03,Wunderground v.1.15,2013-09-18 15:40:00,
2013-09-18 05:45:00,75.3,69.1,29.92,ESE,107,2.0,3.0,81,0.00,,,0.03,Wunderground v.1.15,2013-09-18 15:45:00,
2013-09-18 05:55:00,75.4,69.2,29.92,East,92,4.0,6.0,81,0.00,,,0.03,Wunderground v.1.15,2013-09-18 15:55:00,
2013-09-18 06:05:00,75.5,70.0,29.92,NE,55,5.0,5.0,83,0.00,,,0.03,Wunderground v.1.15,2013-09-18 16:05:00,
2013-09-18 06:15:00,75.4,69.9,29.93,ESE,111,5.0,5.0,83,0.00,,,0.03,Wunderground v.1.15,2013-09-18 16:15:00,
2013-09-18 06:25:00,75.3,69.8,29.93,East,96,4.0,6.0,83,0.00,,,0.03,Wunderground v.1.15,2013-09-18 16:25:00,
2013-09-18 06:35:00,75.5,69.6,29.93,East,79,4.0,6.0,82,0.00,,,0.03,Wunderground v.1.15,2013-09-18 16:35:00,
2013-09-18 06:40:00,75.5,69.6,29.93,ENE,71,4.0,4.0,82,0.00,,,0.03,Wunderground v.1.15,2013-09-18 16:40:00,
2013-09-18 06:45:00,75.5,69.6,29.93,East,101,4.0,6.0,82,0.00,,,0.03,Wunderground v.1.15,2013-09-18 16:45:00,
2013-09-18 06:50:00,75.8,69.9,29.93,ENE,72,3.0,3.0,82,0.00,,,0.03,Wunderground v.1.15,2013-09-18 16:50:00,
2013-09-18 06:55:00,76.0,69.7,29.93,ESE,111,2.0,3.0,81,0.00,,,0.03,Wunderground v.1.15,2013-09-18 16:55:00,
2013-09-18 07:05:00,76.5,69.9,29.93,East,87,4.0,4.0,80,0.00,,,0.03,Wunderground v.1.15,2013-09-18 17:05:00,
2013-09-18 07:15:00,77.0,70.0,29.93,East,86,4.0,4.0,79,0.00,,,0.03,Wunderground v.1.15,2013-09-18 17:15:00,
2013-09-18 07:20:00,77.2,70.2,29.93,ENE,69,4.0,4.0,79,0.00,,,0.03,Wunderground v.1.15,2013-09-18 17:20:00,
2013-09-18 07:25:00,77.5,69.7,29.93,East,90,4.0,5.0,77,0.00,,,0.03,Wunderground v.1.15,2013-09-18 17:25:00,
2013-09-18 07:35:00,78.1,69.5,29.93,ESE,105,5.0,5.0,75,0.00,,,0.03,Wunderground v.1.15,2013-09-18 17:35:00,
2013-09-18 07:40:00,78.2,69.6,29.94,ESE,103,4.0,4.0,75,0.00,,,0.03,Wunderground v.1.15,2013-09-18 17:40:00,
2013-09-18 07:45:00,78.4,69.8,29.94,ESE,106,5.0,6.0,75,0.00,,,0.03,Wunderground v.1.15,2013-09-18 17:45:00,
2013-09-18 07:55:00,78.7,70.1,29.94,ESE,110,5.0,7.0,75,0.00,,,0.03,Wunderground v.1.15,2013-09-18 17:55:00,
2013-09-18 08:00:00,79.0,70.4,29.95,East,96,4.0,4.0,75,0.00,,,0.03,Wunderground v.1.15,2013-09-18 18:00:00,
2013-09-18 08:05:00,79.3,70.3,29.95,ESE,109,5.0,7.0,74,0.00,,,0.03,Wunderground v.1.15,2013-09-18 18:05:00,
2013-09-18 08:15:00,79.6,70.6,29.95,ESE,102,5.0,6.0,74,0.00,,,0.03,Wunderground v.1.15,2013-09-18 18:15:00,
2013-09-18 08:20:00,79.7,70.7,29.95,ESE,104,4.0,4.0,74,0.00,,,0.03,Wunderground v.1.15,2013-09-18 18:20:00,
2013-09-18 08:25:00,80.2,70.8,29.95,ESE,106,4.0,5.0,73,0.00,,,0.03,Wunderground v.1.15,2013-09-18 18:25:00,
2013-09-18 08:35:00,80.6,70.3,29.96,ENE,77,4.0,4.0,71,0.00,,,0.03,Wunderground v.1.15,2013-09-18 18:35:00,
2013-09-18 08:45:00,80.1,70.7,29.96,ENE,67,5.0,5.0,73,0.00,,,0.03,Wunderground v.1.15,2013-09-18 18:45:00,
2013-09-18 08:50:00,80.0,70.6,29.96,East,96,6.0,7.0,73,0.00,,,0.03,Wunderground v.1.15,2013-09-18 18:50:00,
2013-09-18 08:55:00,80.0,70.2,29.96,East,84,6.0,7.0,72,0.00,,,0.03,Wunderground v.1.15,2013-09-18 18:55:00,
2013-09-18 09:05:00,80.7,70.4,29.97,ENE,61,5.0,6.0,71,0.00,,,0.03,Wunderground v.1.15,2013-09-18 19:05:00,
2013-09-18 09:15:00,80.7,70.4,29.97,East,87,7.0,7.0,71,0.00,,,0.03,Wunderground v.1.15,2013-09-18 19:15:00,
2013-09-18 09:20:00,81.0,71.1,29.97,East,88,6.0,6.0,72,0.00,,,0.03,Wunderground v.1.15,2013-09-18 19:20:00,
2013-09-18 09:25:00,81.1,70.4,29.97,ENE,73,6.0,6.0,70,0.00,,,0.03,Wunderground v.1.15,2013-09-18 19:25:00,
2013-09-18 09:35:00,81.5,70.3,29.96,ESE,103,6.0,6.0,69,0.00,,,0.03,Wunderground v.1.15,2013-09-18 19:35:00,
2013-09-18 09:40:00,81.9,71.2,29.97,ENE,63,6.0,6.0,70,0.00,,,0.03,Wunderground v.1.15,2013-09-18 19:40:00,
2013-09-18 09:50:00,81.8,71.5,29.97,ESE,102,6.0,9.0,71,0.00,,,0.03,Wunderground v.1.15,2013-09-18 19:50:00,
2013-09-18 10:00:00,80.6,71.1,29.98,ENE,74,5.0,5.0,73,0.00,,,0.03,Wunderground v.1.15,2013-09-18 20:00:00,
2013-09-18 10:05:00,80.6,71.5,29.98,ESE,103,5.0,5.0,74,0.00,,,0.03,Wunderground v.1.15,2013-09-18 20:05:00,
2013-09-18 10:15:00,81.4,72.3,29.97,SSE,161,5.0,5.0,74,0.00,,,0.03,Wunderground v.1.15,2013-09-18 20:15:00,
2013-09-18 10:20:00,81.8,72.3,29.97,NE,45,6.0,11.0,73,0.00,,,0.03,Wunderground v.1.15,2013-09-18 20:20:00,
2013-09-18 10:30:00,82.6,72.2,29.97,ESE,108,6.0,9.0,71,0.00,,,0.03,Wunderground v.1.15,2013-09-18 20:30:00,
2013-09-18 10:35:00,82.7,72.3,29.97,ESE,112,5.0,10.0,71,0.00,,,0.03,Wunderground v.1.15,2013-09-18 20:35:00,
2013-09-18 10:50:00,83.8,72.1,29.96,ENE,72,4.0,6.0,68,0.00,,,0.03,Wunderground v.1.15,2013-09-18 20:50:00,
2013-09-18 11:00:00,82.8,71.6,29.96,NE,52,7.0,9.0,69,0.00,,,0.03,Wunderground v.1.15,2013-09-18 21:00:00,
2013-09-18 11:10:00,82.1,71.3,29.96,East,89,7.0,7.0,70,0.00,,,0.03,Wunderground v.1.15,2013-09-18 21:10:00,
2013-09-18 11:15:00,82.8,72.4,29.96,East,88,6.0,7.0,71,0.00,,,0.03,Wunderground v.1.15,2013-09-18 21:15:00,
2013-09-18 11:20:00,83.1,70.1,29.96,ESE,107,6.0,10.0,65,0.00,,,0.03,Wunderground v.1.15,2013-09-18 21:20:00,
2013-09-18 11:25:00,82.7,69.7,29.96,East,93,9.0,10.0,65,0.00,,,0.03,Wunderground v.1.15,2013-09-18 21:25:00,
2013-09-18 11:35:00,83.4,70.4,29.95,East,84,6.0,9.0,65,0.00,,,0.03,Wunderground v.1.15,2013-09-18 21:35:00,
2013-09-18 11:40:00,83.8,70.8,29.96,ESE,119,5.0,5.0,65,0.00,,,0.03,Wunderground v.1.15,2013-09-18 21:40:00,
2013-09-18 11:50:00,84.0,71.0,29.96,ENE,77,5.0,7.0,65,0.00,,,0.03,Wunderground v.1.15,2013-09-18 21:50:00,
2013-09-18 12:00:00,83.0,70.5,29.96,ENE,65,4.0,5.0,66,0.00,,,0.03,Wunderground v.1.15,2013-09-18 22:00:00,
2013-09-18 12:05:00,83.4,69.9,29.96,ENE,67,5.0,6.0,64,0.00,,,0.03,Wunderground v.1.15,2013-09-18 22:05:00,
2013-09-18 12:15:00,83.0,70.0,29.95,NE,56,6.0,6.0,65,0.00,,,0.03,Wunderground v.1.15,2013-09-18 22:15:00,
2013-09-18 12:20:00,83.0,70.9,29.95,NE,40,6.0,10.0,67,0.00,,,0.03,Wunderground v.1.15,2013-09-18 22:20:00,
2013-09-18 12:30:00,82.9,71.3,29.95,NNE,32,6.0,9.0,68,0.00,,,0.03,Wunderground v.1.15,2013-09-18 22:30:00,
2013-09-18 12:40:00,82.8,70.7,29.94,NE,49,6.0,6.0,67,0.00,,,0.03,Wunderground v.1.15,2013-09-18 22:40:00,
2013-09-18 12:50:00,83.2,71.1,29.94,East,94,6.0,8.0,67,0.00,,,0.03,Wunderground v.1.15,2013-09-18 22:50:00,
2013-09-18 13:00:00,82.9,71.3,29.93,NNE,30,6.0,9.0,68,0.00,,,0.03,Wunderground v.1.15,2013-09-18 23:00:00,
2013-09-18 13:05:00,83.1,71.4,29.93,NE,40,6.0,9.0,68,0.00,,,0.03,Wunderground v.1.15,2013-09-18 23:05:00,
2013-09-18 13:15:00,83.3,71.2,29.93,NE,50,5.0,8.0,67,0.00,,,0.03,Wunderground v.1.15,2013-09-18 23:15:00,
2013-09-18 13:25:00,83.0,70.9,29.93,ESE,105,6.0,6.0,67,0.00,,,0.03,Wunderground v.1.15,2013-09-18 23:25:00,
2013-09-18 13:35:00,83.8,70.8,29.92,NNE,28,4.0,6.0,65,0.00,,,0.03,Wunderground v.1.15,2013-09-18 23:35:00,
2013-09-18 13:40:00,84.5,70.0,29.92,ENE,67,3.0,3.0,62,0.00,,,0.03,Wunderground v.1.15,2013-09-18 23:40:00,
2013-09-18 13:50:00,85.2,70.2,29.92,East,87,4.0,4.0,61,0.00,,,0.03,Wunderground v.1.15,2013-09-18 23:50:00,
2013-09-18 13:55:00,85.1,69.7,29.92,East,101,4.0,4.0,60,0.00,,,0.03,Wunderground v.1.15,2013-09-18 23:55:00,
2013-09-18 14:05:00,84.0,71.0,29.92,ESE,103,5.0,7.0,65,0.00,,,0.03,Wunderground v.1.15,2013-09-19 00:05:00,
2013-09-18 14:15:00,83.4,71.3,29.92,NE,42,5.0,7.0,67,0.00,,,0.03,Wunderground v.1.15,2013-09-19 00:15:00,
2013-09-18 14:25:00,83.6,69.7,29.92,NE,36,4.0,7.0,63,0.00,,,0.03,Wunderground v.1.15,2013-09-19 00:25:00,
2013-09-18 14:30:00,83.1,70.1,29.92,ENE,78,6.0,6.0,65,0.00,,,0.03,Wunderground v.1.15,2013-09-19 00:30:00,
2013-09-18 14:40:00,83.5,70.9,29.91,ENE,69,5.0,5.0,66,0.00,,,0.03,Wunderground v.1.15,2013-09-19 00:40:00,
2013-09-18 14:50:00,84.0,71.9,29.91,NE,39,4.0,7.0,67,0.00,,,0.03,Wunderground v.1.15,2013-09-19 00:50:00,
2013-09-18 15:00:00,83.8,71.2,29.91,ENE,67,5.0,6.0,66,0.00,,,0.03,Wunderground v.1.15,2013-09-19 01:00:00,
2013-09-18 15:05:00,83.1,71.0,29.91,ESE,102,6.0,6.0,67,0.00,,,0.03,Wunderground v.1.15,2013-09-19 01:05:00,
2013-09-18 15:15:00,82.8,71.2,29.91,NE,45,7.0,11.0,68,0.00,,,0.03,Wunderground v.1.15,2013-09-19 01:15:00,
2013-09-18 15:25:00,82.8,71.6,29.91,ESE,110,6.0,10.0,69,0.00,,,0.03,Wunderground v.1.15,2013-09-19 01:25:00,
2013-09-18 15:30:00,82.6,71.8,29.91,ENE,58,6.0,6.0,70,0.00,,,0.03,Wunderground v.1.15,2013-09-19 01:30:00,
2013-09-18 15:40:00,82.4,72.0,29.91,ENE,76,6.0,6.0,71,0.00,,,0.03,Wunderground v.1.15,2013-09-19 01:40:00,
2013-09-18 15:50:00,81.8,70.6,29.90,ESE,107,8.0,11.0,69,0.00,,,0.03,Wunderground v.1.15,2013-09-19 01:50:00,
2013-09-18 16:00:00,81.9,72.0,29.90,East,95,7.0,7.0,72,0.00,,,0.03,Wunderground v.1.15,2013-09-19 02:00:00,
2013-09-18 16:05:00,81.7,71.4,29.90,ENE,72,7.0,9.0,71,0.00,,,0.03,Wunderground v.1.15,2013-09-19 02:05:00,
2013-09-18 18:25:00,77.8,70.4,29.92,ENE,75,5.0,5.0,78,0.00,,,0.03,Wunderground v.1.15,2013-09-19 04:25:00,
2013-09-18 18:35:00,77.6,70.2,29.92,East,83,4.0,4.0,78,0.00,,,0.03,Wunderground v.1.15,2013-09-19 04:35:00,
2013-09-18 18:45:00,77.5,70.5,29.93,NE,38,4.0,4.0,79,0.00,,,0.03,Wunderground v.1.15,2013-09-19 04:45:00,
2013-09-18 18:50:00,77.5,70.8,29.93,ENE,71,4.0,18.0,80,0.00,,,0.03,Wunderground v.1.15,2013-09-19 04:50:00,
2013-09-18 18:55:00,77.4,70.7,29.93,ENE,64,3.0,18.0,80,0.00,,,0.03,Wunderground v.1.15,2013-09-19 04:55:00,
2013-09-18 19:00:00,77.3,70.6,29.93,East,87,3.0,18.0,80,0.00,,,0.03,Wunderground v.1.15,2013-09-19 05:00:00,
2013-09-18 19:05:00,77.2,70.5,29.94,ENE,59,3.0,18.0,80,0.00,,,0.03,Wunderground v.1.15,2013-09-19 05:05:00,
2013-09-18 19:15:00,77.1,70.5,29.94,East,97,3.0,4.0,80,0.00,,,0.03,Wunderground v.1.15,2013-09-19 05:15:00,
2013-09-18 19:25:00,77.1,70.5,29.94,East,83,4.0,6.0,80,0.00,,,0.03,Wunderground v.1.15,2013-09-19 05:25:00,
2013-09-18 19:30:00,77.1,70.5,29.94,East,82,3.0,4.0,80,0.00,,,0.03,Wunderground v.1.15,2013-09-19 05:30:00,
2013-09-18 19:40:00,77.2,70.5,29.94,ESE,105,4.0,4.0,80,0.00,,,0.03,Wunderground v.1.15,2013-09-19 05:40:00,
2013-09-18 19:50:00,77.3,71.0,29.94,ENE,64,4.0,4.0,81,0.00,,,0.03,Wunderground v.1.15,2013-09-19 05:50:00,
2013-09-18 20:00:00,77.3,71.0,29.95,ENE,78,4.0,4.0,81,0.00,,,0.03,Wunderground v.1.15,2013-09-19 06:00:00,
2013-09-18 20:05:00,77.3,70.6,29.95,East,91,4.0,4.0,80,0.00,,,0.03,Wunderground v.1.15,2013-09-19 06:05:00,
2013-09-18 20:15:00,77.2,70.2,29.95,East,88,3.0,4.0,79,0.00,,,0.03,Wunderground v.1.15,2013-09-19 06:15:00,
2013-09-18 20:20:00,77.1,70.1,29.95,East,85,3.0,3.0,79,0.00,,,0.03,Wunderground v.1.15,2013-09-19 06:20:00,
2013-09-18 20:25:00,77.0,70.0,29.95,East,81,3.0,3.0,79,0.00,,,0.03,Wunderground v.1.15,2013-09-19 06:25:00,
2013-09-18 20:35:00,77.0,70.0,29.95,East,89,3.0,5.0,79,0.00,,,0.03,Wunderground v.1.15,2013-09-19 06:35:00,
2013-09-18 20:40:00,76.9,69.5,29.96,ESE,105,3.0,3.0,78,0.00,,,0.03,Wunderground v.1.15,2013-09-19 06:40:00,
2013-09-18 20:50:00,76.9,69.5,29.96,ENE,70,4.0,4.0,78,0.00,,,0.03,Wunderground v.1.15,2013-09-19 06:50:00,
2013-09-18 21:00:00,76.7,69.7,29.96,East,80,3.0,4.0,79,0.00,,,0.03,Wunderground v.1.15,2013-09-19 07:00:00,
2013-09-18 21:05:00,76.6,69.6,29.97,East,84,2.0,4.0,79,0.00,,,0.03,Wunderground v.1.15,2013-09-19 07:05:00,
2013-09-18 21:15:00,76.6,69.6,29.97,ENE,71,3.0,3.0,79,0.00,,,0.03,Wunderground v.1.15,2013-09-19 07:15:00,
2013-09-18 21:25:00,76.5,69.5,29.97,ENE,65,3.0,5.0,79,0.00,,,0.03,Wunderground v.1.15,2013-09-19 07:25:00,
2013-09-18 21:35:00,76.5,69.5,29.97,ENE,71,3.0,4.0,79,0.00,,,0.03,Wunderground v.1.15,2013-09-19 07:35:00,
2013-09-18 21:40:00,76.5,69.5,29.96,ESE,110,3.0,3.0,79,0.00,,,0.03,Wunderground v.1.15,2013-09-19 07:40:00,
2013-09-18 21:50:00,76.5,69.1,29.96,East,87,5.0,5.0,78,0.00,,,0.03,Wunderground v.1.15,2013-09-19 07:50:00,
2013-09-18 22:00:00,76.5,69.1,29.96,East,79,4.0,5.0,78,0.00,,,0.03,Wunderground v.1.15,2013-09-19 08:00:00,
2013-09-18 22:05:00,76.4,69.4,29.96,East,100,4.0,5.0,79,0.00,,,0.03,Wunderground v.1.15,2013-09-19 08:05:00,
2013-09-18 22:15:00,76.1,69.1,29.97,East,90,3.0,3.0,79,0.00,,,0.03,Wunderground v.1.15,2013-09-19 08:15:00,
2013-09-18 22:25:00,76.0,69.4,29.97,East,90,2.0,2.0,80,0.00,,,0.03,Wunderground v.1.15,2013-09-19 08:25:00,
2013-09-18 22:35:00,76.0,69.4,29.97,East,86,3.0,4.0,80,0.00,,,0.03,Wunderground v.1.15,2013-09-19 08:35:00,
2013-09-18 22:45:00,76.1,69.5,29.96,East,84,3.0,6.0,80,0.00,,,0.03,Wunderground v.1.15,2013-09-19 08:45:00,
2013-09-18 22:55:00,76.2,69.6,29.96,East,83,4.0,4.0,80,0.00,,,0.03,Wunderground v.1.15,2013-09-19 08:55:00,
2013-09-18 23:05:00,76.0,69.4,29.96,East,99,3.0,8.0,80,0.00,,,0.03,Wunderground v.1.15,2013-09-19 09:05:00,
2013-09-18 23:15:00,76.0,69.4,29.96,ENE,69,3.0,3.0,80,0.00,,,0.03,Wunderground v.1.15,2013-09-19 09:15:00,
2013-09-18 23:25:00,76.1,69.8,29.96,East,86,2.0,3.0,81,0.00,,,0.03,Wunderground v.1.15,2013-09-19 09:25:00,
2013-09-18 23:35:00,76.0,69.7,29.96,East,80,3.0,3.0,81,0.00,,,0.03,Wunderground v.1.15,2013-09-19 09:35:00,
2013-09-18 23:40:00,76.0,69.7,29.95,East,94,3.0,3.0,81,0.00,,,0.03,Wunderground v.1.15,2013-09-19 09:40:00,
2013-09-18 23:50:00,76.0,69.7,29.95,ENE,67,3.0,3.0,81,0.00,,,0.03,Wunderground v.1.15,2013-09-19 09:50:00,